createdAt,value
2022-11-05T00:01:02.238Z,22.40
2022-11-05T00:04:05.875Z,20.13
2022-11-05T00:07:11.193Z,21.48
2022-11-05T00:10:19.769Z,19.80
2022-11-05T00:13:26.156Z,17.90
2022-11-05T00:16:29.783Z,19.60
2022-11-05T00:19:16.686Z,21.00
2022-11-05T00:22:20.542Z,19.70
2022-11-05T00:25:14.654Z,17.13
2022-11-05T00:28:03.813Z,26.85
2022-11-05T00:30:49.165Z,37.15
2022-11-05T00:33:34.265Z,38.83
2022-11-05T00:36:19.184Z,34.90
2022-11-05T00:39:05.815Z,30.88
2022-11-05T00:42:10.676Z,21.58
2022-11-05T00:45:01.882Z,17.52
2022-11-05T00:48:05.971Z,24.45
2022-11-05T00:50:51.307Z,19.25
2022-11-05T00:53:36.544Z,18.80
2022-11-05T00:56:21.577Z,30.80
2022-11-05T00:59:06.542Z,31.42
2022-11-05T01:01:51.858Z,33.78
2022-11-05T01:04:37.123Z,37.75
2022-11-05T01:07:22.201Z,34.17
2022-11-05T01:10:07.718Z,33.35
2022-11-05T01:12:52.672Z,33.83
2022-11-05T01:15:38.766Z,35.55
2022-11-05T01:18:25.274Z,38.20
2022-11-05T01:21:15.741Z,31.23
2022-11-05T01:24:01.244Z,35.80
2022-11-05T01:26:46.282Z,28.23
2022-11-05T01:29:31.454Z,28.10
2022-11-05T01:32:16.502Z,33.60
2022-11-05T01:35:02.185Z,27.48
2022-11-05T01:37:47.548Z,26.88
2022-11-05T01:40:32.461Z,29.83
2022-11-05T01:43:20.694Z,35.92
2022-11-05T01:46:05.845Z,31.67
2022-11-05T01:48:57.288Z,38.03
2022-11-05T01:51:46.070Z,35.88
2022-11-05T01:54:34.720Z,32.22
2022-11-05T01:57:20.128Z,36.60
2022-11-05T02:00:06.010Z,37.17
2022-11-05T02:02:50.980Z,36.55
2022-11-05T02:05:37.036Z,39.60
2022-11-05T02:08:45.877Z,27.20
2022-11-05T02:11:30.839Z,35.35
2022-11-05T02:14:16.089Z,29.02
2022-11-05T02:17:08.196Z,30.48
2022-11-05T02:20:06.335Z,29.42
2022-11-05T02:23:19.542Z,33.10
2022-11-05T02:26:22.861Z,26.20
2022-11-05T02:29:20.042Z,32.72
2022-11-05T02:32:07.901Z,28.80
2022-11-05T02:35:22.865Z,31.08
2022-11-05T02:38:13.091Z,31.35
2022-11-05T02:41:41.734Z,26.93
2022-11-05T02:44:44.904Z,23.73
2022-11-05T02:47:42.782Z,21.73
2022-11-05T02:50:37.220Z,25.95
2022-11-05T02:53:31.498Z,23.40
2022-11-05T02:56:24.053Z,23.05
2022-11-05T02:59:09.121Z,22.02
2022-11-05T03:01:55.181Z,21.02
2022-11-05T03:04:40.903Z,15.70
2022-11-05T03:07:44.855Z,17.42
2022-11-05T03:10:49.588Z,18.10
2022-11-05T03:13:59.162Z,15.57
2022-11-05T03:16:53.934Z,15.25
2022-11-05T03:19:54.158Z,14.88
2022-11-05T03:22:47.293Z,18.33
2022-11-05T03:25:38.902Z,17.25
2022-11-05T03:28:27.840Z,14.40
2022-11-05T03:31:14.737Z,16.00
2022-11-05T03:34:02.159Z,14.57
2022-11-05T03:36:52.080Z,14.15
2022-11-05T03:42:36.989Z,13.70
2022-11-05T03:45:26.611Z,15.27
2022-11-05T03:48:14.191Z,14.23
2022-11-05T03:51:17.728Z,13.45
2022-11-05T03:54:04.875Z,17.13
2022-11-05T03:57:01.287Z,16.70
2022-11-05T03:59:49.019Z,14.07
2022-11-05T04:02:34.406Z,14.30
2022-11-05T04:05:19.551Z,17.67
2022-11-05T04:08:43.239Z,20.27
2022-11-05T04:11:46.971Z,13.15
2022-11-05T04:14:32.244Z,12.88
2022-11-05T04:17:17.484Z,14.38
2022-11-05T04:20:21.115Z,15.93
2022-11-05T04:23:25.323Z,12.57
2022-11-05T04:26:10.474Z,13.98
2022-11-05T04:29:14.355Z,15.77
2022-11-05T04:31:59.684Z,15.90
2022-11-05T04:34:44.800Z,15.43
2022-11-05T04:37:30.139Z,18.00
2022-11-05T04:40:15.105Z,14.45
2022-11-05T04:43:00.463Z,18.60
2022-11-05T04:45:45.733Z,26.02
2022-11-05T04:48:31.035Z,25.35
2022-11-05T04:51:16.831Z,27.45
2022-11-05T04:54:01.684Z,28.20
2022-11-05T04:56:46.927Z,36.00
2022-11-05T04:59:31.933Z,27.63
2022-11-05T05:02:16.876Z,27.33
2022-11-05T05:05:03.108Z,29.88
2022-11-05T05:07:48.131Z,29.05
2022-11-05T05:10:33.032Z,30.95
2022-11-05T05:13:17.999Z,34.63
2022-11-05T05:16:08.075Z,35.00
2022-11-05T05:18:54.175Z,33.75
2022-11-05T05:21:39.373Z,31.13
2022-11-05T05:24:24.950Z,26.15
2022-11-05T05:27:10.192Z,23.83
2022-11-05T05:29:59.446Z,21.45
2022-11-05T05:32:44.584Z,18.30
2022-11-05T05:35:30.048Z,26.60
2022-11-05T05:38:14.896Z,19.05
2022-11-05T05:41:00.643Z,20.77
2022-11-05T05:43:45.719Z,28.40
2022-11-05T05:46:30.941Z,26.50
2022-11-05T05:49:16.248Z,24.23
2022-11-05T05:52:01.091Z,25.13
2022-11-05T05:54:45.940Z,20.48
2022-11-05T05:57:30.891Z,23.42
2022-11-05T06:00:16.124Z,17.73
2022-11-05T06:03:01.140Z,20.15
2022-11-05T06:05:46.337Z,28.35
2022-11-05T06:08:31.984Z,27.92
2022-11-05T06:11:17.148Z,30.42
2022-11-05T06:14:02.343Z,27.63
2022-11-05T06:16:47.303Z,30.35
2022-11-05T06:19:32.255Z,32.33
2022-11-05T06:22:17.231Z,30.02
2022-11-05T06:25:02.647Z,25.80
2022-11-05T06:27:47.890Z,27.85
2022-11-05T06:30:33.153Z,27.15
2022-11-05T06:33:18.390Z,27.10
2022-11-05T06:36:04.919Z,25.88
2022-11-05T06:38:50.130Z,29.25
2022-11-05T06:41:45.662Z,26.52
2022-11-05T06:44:40.304Z,23.85
2022-11-05T06:47:25.232Z,23.85
2022-11-05T06:50:10.512Z,28.40
2022-11-05T06:53:00.829Z,26.63
2022-11-05T06:55:47.827Z,26.35
2022-11-05T06:58:33.812Z,32.78
2022-11-05T07:01:19.225Z,29.92
2022-11-05T07:04:04.480Z,27.52
2022-11-05T07:06:49.708Z,29.30
2022-11-05T07:09:38.432Z,33.92
2022-11-05T07:12:23.399Z,29.23
2022-11-05T07:15:09.613Z,30.35
2022-11-05T07:17:59.793Z,27.85
2022-11-05T07:23:29.702Z,28.73
2022-11-05T07:26:14.995Z,37.10
2022-11-05T07:29:00.373Z,41.05
2022-11-05T07:31:46.937Z,31.27
2022-11-05T07:34:32.458Z,36.55
2022-11-05T07:37:17.563Z,35.78
2022-11-05T07:40:03.180Z,33.17
2022-11-05T07:42:50.815Z,39.78
2022-11-05T07:45:36.014Z,37.90
2022-11-05T07:48:21.014Z,40.75
2022-11-05T07:51:06.207Z,36.47
2022-11-05T07:53:51.167Z,34.13
2022-11-05T07:56:36.663Z,33.45
2022-11-05T07:59:21.672Z,43.58
2022-11-05T08:02:09.845Z,31.92
2022-11-05T08:04:55.208Z,33.78
2022-11-05T08:07:40.293Z,39.00
2022-11-05T08:10:25.824Z,33.50
2022-11-05T08:13:12.941Z,31.05
2022-11-05T08:15:58.533Z,40.53
2022-11-05T08:18:44.620Z,36.70
2022-11-05T08:21:30.938Z,34.70
2022-11-05T08:24:15.788Z,37.10
2022-11-05T08:27:00.677Z,35.13
2022-11-05T08:29:45.953Z,34.90
2022-11-05T08:32:31.031Z,37.47
2022-11-05T08:35:15.902Z,30.48
2022-11-05T08:38:03.144Z,29.63
2022-11-05T08:40:57.417Z,31.20
2022-11-05T08:43:42.375Z,33.53
2022-11-05T08:46:27.415Z,30.50
2022-11-05T08:49:12.287Z,27.60
2022-11-05T08:51:57.569Z,25.80
2022-11-05T08:54:43.605Z,23.30
2022-11-05T08:57:28.709Z,27.77
2022-11-05T09:00:15.153Z,24.40
2022-11-05T09:03:04.133Z,24.90
2022-11-05T09:05:49.103Z,27.20
2022-11-05T09:08:34.365Z,32.58
2022-11-05T09:11:19.449Z,26.92
2022-11-05T09:14:04.416Z,24.88
2022-11-05T09:16:49.429Z,29.67
2022-11-05T09:19:39.398Z,26.15
2022-11-05T09:22:24.766Z,27.75
2022-11-05T09:25:10.134Z,24.88
2022-11-05T09:28:14.632Z,28.35
2022-11-05T09:31:06.065Z,28.30
2022-11-05T09:33:50.835Z,24.95
2022-11-05T09:36:35.878Z,26.50
2022-11-05T09:39:20.963Z,31.40
2022-11-05T09:42:11.746Z,28.15
2022-11-05T09:45:13.423Z,27.27
2022-11-05T09:48:15.735Z,29.02
2022-11-05T09:51:00.931Z,22.17
2022-11-05T09:53:46.567Z,21.60
2022-11-05T09:56:37.280Z,23.70
2022-11-05T09:59:43.520Z,27.55
2022-11-05T10:02:33.150Z,21.40
2022-11-05T10:08:29.743Z,20.50
2022-11-05T10:11:57.092Z,22.60
2022-11-05T10:14:47.615Z,24.83
2022-11-05T10:17:39.160Z,20.02
2022-11-05T10:20:31.123Z,26.67
2022-11-05T10:23:22.304Z,25.25
2022-11-05T10:26:13.496Z,28.48
2022-11-05T10:28:58.856Z,30.45
2022-11-05T10:31:44.521Z,22.83
2022-11-05T10:34:33.624Z,30.33
2022-11-05T10:37:20.452Z,25.67
2022-11-05T10:40:14.033Z,27.95
2022-11-05T10:43:09.868Z,24.00
2022-11-05T10:45:59.778Z,25.95
2022-11-05T10:49:06.551Z,26.00
2022-11-05T10:52:00.407Z,23.58
2022-11-05T10:54:46.906Z,26.85
2022-11-05T10:57:38.061Z,23.75
2022-11-05T11:00:28.315Z,25.25
2022-11-05T11:03:43.246Z,24.60
2022-11-05T11:06:31.460Z,27.55
2022-11-05T11:09:35.705Z,28.33
2022-11-05T11:12:24.538Z,27.02
2022-11-05T11:15:32.762Z,28.52
2022-11-05T11:18:26.150Z,28.00
2022-11-05T11:21:16.533Z,27.80
2022-11-05T11:24:04.753Z,26.63
2022-11-05T11:26:50.146Z,30.75
2022-11-05T11:29:41.125Z,29.83
2022-11-05T11:32:36.137Z,22.10
2022-11-05T11:35:23.988Z,23.83
2022-11-05T11:38:16.250Z,17.45
2022-11-05T11:41:09.189Z,9.88
2022-11-05T11:43:59.827Z,3.70
2022-11-05T11:46:49.508Z,9.15
2022-11-05T11:50:00.470Z,6.60
2022-11-05T11:52:45.455Z,6.55
2022-11-05T11:55:30.802Z,9.90
2022-11-05T11:58:15.801Z,6.72
2022-11-05T12:01:13.307Z,4.47
2022-11-05T12:04:10.336Z,4.25
2022-11-05T12:07:20.095Z,5.60
2022-11-05T12:10:23.998Z,7.43
2022-11-05T12:13:33.345Z,8.95
2022-11-05T12:16:29.987Z,7.55
2022-11-05T12:19:43.655Z,6.53
2022-11-05T12:23:05.867Z,5.57
2022-11-05T12:26:03.968Z,7.50
2022-11-05T12:29:18.804Z,5.57
2022-11-05T12:32:04.111Z,6.95
2022-11-05T12:35:18.889Z,9.45
2022-11-05T12:38:25.476Z,6.95
2022-11-05T12:41:37.009Z,8.05
2022-11-05T12:44:40.609Z,7.68
2022-11-05T12:47:31.448Z,11.52
2022-11-05T12:50:31.224Z,10.10
2022-11-05T12:53:31.643Z,14.63
2022-11-05T12:56:30.422Z,8.20
2022-11-05T12:59:28.494Z,11.80
2022-11-05T13:02:25.985Z,11.65
2022-11-05T13:05:24.711Z,14.77
2022-11-05T13:08:23.319Z,18.80
2022-11-05T13:11:19.775Z,13.15
2022-11-05T13:14:14.877Z,19.58
2022-11-05T13:17:10.799Z,15.57
2022-11-05T13:20:19.131Z,16.08
2022-11-05T13:23:18.943Z,17.17
2022-11-05T13:26:27.242Z,12.68
2022-11-05T13:29:20.252Z,9.38
2022-11-05T13:32:26.551Z,11.95
2022-11-05T13:35:24.465Z,19.77
2022-11-05T13:38:37.096Z,18.08
2022-11-05T13:41:35.116Z,17.75
2022-11-05T13:44:38.358Z,16.33
2022-11-05T13:47:50.425Z,11.38
2022-11-05T13:50:51.038Z,13.60
2022-11-05T13:53:45.336Z,15.30
2022-11-05T13:56:55.251Z,11.45
2022-11-05T14:03:16.295Z,13.57
2022-11-05T14:06:10.903Z,16.27
2022-11-05T14:09:00.575Z,14.40
2022-11-05T14:11:52.060Z,21.17
2022-11-05T14:14:58.438Z,15.65
2022-11-05T14:18:02.576Z,16.73
2022-11-05T14:21:26.042Z,13.75
2022-11-05T14:24:23.429Z,14.45
2022-11-05T14:27:09.775Z,12.05
2022-11-05T14:29:55.545Z,13.32
2022-11-05T14:32:48.613Z,16.77
2022-11-05T14:35:38.484Z,18.48
2022-11-05T14:38:28.230Z,16.83
2022-11-05T14:41:13.680Z,15.63
2022-11-05T14:44:04.964Z,15.70
2022-11-05T14:46:53.244Z,13.77
2022-11-05T14:49:50.996Z,11.70
2022-11-05T14:52:38.437Z,5.68
2022-11-05T14:55:36.063Z,9.93
2022-11-05T14:58:28.891Z,12.10
2022-11-05T15:01:14.044Z,7.25
2022-11-05T15:04:37.169Z,9.82
2022-11-05T15:07:22.133Z,8.88
2022-11-05T15:10:14.214Z,8.13
2022-11-05T15:13:06.031Z,9.48
2022-11-05T15:15:51.833Z,11.50
2022-11-05T15:18:44.007Z,7.55
2022-11-05T15:21:34.393Z,7.97
2022-11-05T15:24:20.393Z,9.90
2022-11-05T15:27:26.708Z,7.70
2022-11-05T15:30:21.529Z,15.48
2022-11-05T15:33:19.491Z,10.60
2022-11-05T15:36:27.965Z,12.70
2022-11-05T15:39:33.658Z,16.17
2022-11-05T15:42:22.362Z,10.70
2022-11-05T15:45:20.503Z,11.82
2022-11-05T15:48:19.253Z,14.20
2022-11-05T15:51:04.823Z,8.00
2022-11-05T15:54:23.701Z,11.73
2022-11-05T15:56:57.935Z,15.05
2022-11-05T15:59:47.056Z,14.30
2022-11-05T16:02:34.916Z,11.77
2022-11-05T16:05:20.854Z,13.90
2022-11-05T16:08:06.297Z,16.73
2022-11-05T16:10:54.991Z,18.85
2022-11-05T16:13:41.678Z,13.35
2022-11-05T16:16:33.887Z,21.88
2022-11-05T16:19:40.565Z,23.00
2022-11-05T16:22:43.648Z,10.52
2022-11-05T16:25:38.180Z,10.00
2022-11-05T16:28:25.686Z,8.77
2022-11-05T16:31:11.054Z,11.80
2022-11-05T16:33:57.070Z,18.17
2022-11-05T16:36:42.258Z,16.02
2022-11-05T16:39:27.574Z,14.52
2022-11-05T16:42:21.944Z,11.18
2022-11-05T16:45:10.113Z,8.15
2022-11-05T16:47:55.412Z,7.75
2022-11-05T16:50:42.240Z,4.35
2022-11-05T16:53:27.326Z,9.02
2022-11-05T16:56:21.076Z,6.07
2022-11-05T16:59:08.680Z,2.55
2022-11-05T17:01:56.020Z,5.43
2022-11-05T17:04:41.175Z,5.18
2022-11-05T17:07:27.487Z,7.22
2022-11-05T17:10:12.909Z,4.63
2022-11-05T17:12:57.863Z,9.85
2022-11-05T17:15:44.940Z,9.07
2022-11-05T17:18:30.200Z,9.10
2022-11-05T17:21:15.449Z,8.30
2022-11-05T17:24:00.415Z,10.25
2022-11-05T17:26:45.410Z,12.18
2022-11-05T17:29:30.561Z,27.17
2022-11-05T17:32:15.485Z,9.27
2022-11-05T17:35:00.529Z,8.50
2022-11-05T17:37:46.251Z,6.57
2022-11-05T17:40:34.666Z,10.77
2022-11-05T17:43:20.571Z,8.52
2022-11-05T17:46:08.967Z,5.40
2022-11-05T17:48:54.101Z,6.97
2022-11-05T17:51:39.481Z,9.05
2022-11-05T17:54:24.779Z,4.40
2022-11-05T17:57:10.192Z,4.32
2022-11-05T17:59:55.719Z,4.70
2022-11-05T18:02:41.029Z,3.42
2022-11-05T18:05:27.847Z,5.93
2022-11-05T18:08:13.086Z,5.60
2022-11-05T18:10:58.243Z,2.78
2022-11-05T18:13:43.517Z,2.78
2022-11-05T18:16:28.788Z,3.55
2022-11-05T18:19:13.872Z,2.55
2022-11-05T18:21:58.774Z,4.57
2022-11-05T18:24:44.461Z,2.42
2022-11-05T18:27:29.740Z,3.40
2022-11-05T18:30:15.899Z,4.20
2022-11-05T18:33:01.221Z,3.85
2022-11-05T18:35:46.518Z,3.95
2022-11-05T18:38:31.581Z,2.85
2022-11-05T18:41:16.826Z,6.93
2022-11-05T18:44:02.898Z,4.18
2022-11-05T18:46:58.220Z,5.03
2022-11-05T18:49:43.881Z,4.03
2022-11-05T18:52:31.514Z,6.82
2022-11-05T18:55:16.470Z,2.95
2022-11-05T18:58:01.766Z,4.32
2022-11-05T19:00:46.622Z,5.15
2022-11-05T19:03:31.917Z,5.38
2022-11-05T19:06:18.080Z,4.00
2022-11-05T19:09:05.190Z,6.43
2022-11-05T19:11:50.902Z,6.57
2022-11-05T19:14:36.417Z,10.68
2022-11-05T19:17:21.606Z,10.38
2022-11-05T19:20:07.444Z,22.20
2022-11-05T19:22:52.362Z,8.38
2022-11-05T19:25:37.874Z,7.57
2022-11-05T19:28:23.463Z,11.95
2022-11-05T19:31:14.183Z,8.65
2022-11-05T19:33:59.455Z,12.68
2022-11-05T19:36:44.383Z,13.55
2022-11-05T19:39:29.557Z,16.83
2022-11-05T19:42:14.444Z,18.00
2022-11-05T19:45:16.714Z,12.15
2022-11-05T19:48:05.589Z,20.17
2022-11-05T19:50:50.560Z,15.38
2022-11-05T19:53:37.710Z,6.38
2022-11-05T19:56:29.613Z,9.02
2022-11-05T19:59:15.094Z,11.57
2022-11-05T20:02:00.380Z,10.85
2022-11-05T20:04:45.845Z,14.15
2022-11-05T20:07:31.142Z,7.07
2022-11-05T20:10:16.657Z,7.30
2022-11-05T20:13:01.962Z,9.63
2022-11-05T20:15:47.331Z,10.75
2022-11-05T20:18:32.751Z,7.50
2022-11-05T20:21:18.828Z,5.43
2022-11-05T20:24:04.299Z,10.95
2022-11-05T20:26:49.658Z,9.30
2022-11-05T20:29:35.797Z,4.93
2022-11-05T20:32:21.244Z,9.32
2022-11-05T20:35:06.532Z,4.63
2022-11-05T20:37:54.086Z,7.28
2022-11-05T20:40:39.835Z,5.70
2022-11-05T20:43:30.137Z,3.50
2022-11-05T20:46:17.910Z,4.50
2022-11-05T20:49:03.341Z,2.03
2022-11-05T20:51:48.513Z,7.85
2022-11-05T20:54:43.513Z,4.90
2022-11-05T20:57:28.540Z,3.47
2022-11-05T21:00:14.482Z,4.65
2022-11-05T21:02:59.592Z,5.00
2022-11-05T21:05:46.648Z,4.93
2022-11-05T21:08:33.117Z,2.30
2022-11-05T21:11:19.138Z,1.83
2022-11-05T21:14:04.151Z,5.28
2022-11-05T21:16:49.154Z,2.40
2022-11-05T21:19:35.169Z,3.58
2022-11-05T21:22:20.323Z,3.30
2022-11-05T21:25:06.067Z,3.80
2022-11-05T21:27:51.343Z,4.53
2022-11-05T21:30:38.177Z,3.47
2022-11-05T21:33:23.528Z,4.05
2022-11-05T21:36:11.064Z,2.20
2022-11-05T21:38:56.267Z,4.32
2022-11-05T21:41:42.610Z,3.25
2022-11-05T21:44:27.807Z,2.85
2022-11-05T21:47:13.059Z,4.07
2022-11-05T21:49:58.227Z,1.95
2022-11-05T21:53:01.890Z,2.80
2022-11-05T21:56:10.172Z,2.53
2022-11-05T21:59:14.000Z,3.75
2022-11-05T22:02:02.528Z,2.85
2022-11-05T22:04:51.647Z,2.60
2022-11-05T22:07:39.192Z,2.63
2022-11-05T22:10:23.988Z,4.60
2022-11-05T22:13:09.001Z,4.00
2022-11-05T22:15:55.521Z,3.97
2022-11-05T22:18:40.430Z,3.60
2022-11-05T22:21:25.786Z,2.38
2022-11-05T22:24:11.124Z,4.53
2022-11-05T22:26:56.096Z,3.08
2022-11-05T22:29:41.455Z,2.85
2022-11-05T22:32:26.590Z,1.75
2022-11-05T22:35:11.621Z,3.05
2022-11-05T22:37:57.075Z,2.22
2022-11-05T22:40:42.381Z,2.47
2022-11-05T22:43:27.171Z,4.90
2022-11-05T22:46:18.578Z,13.77
2022-11-05T22:49:04.010Z,2.03
2022-11-05T22:51:50.318Z,2.97
2022-11-05T22:54:39.281Z,4.32
2022-11-05T22:57:24.663Z,3.38
2022-11-05T23:00:17.067Z,2.70
2022-11-05T23:03:03.074Z,3.75
2022-11-05T23:05:57.359Z,2.08
2022-11-05T23:09:00.800Z,4.60
2022-11-05T23:11:49.815Z,4.93
2022-11-05T23:14:36.510Z,5.18
2022-11-05T23:17:40.188Z,1.98
2022-11-05T23:20:44.047Z,4.15
2022-11-05T23:23:47.951Z,2.97
2022-11-05T23:26:49.916Z,2.97
2022-11-05T23:29:34.916Z,3.20
2022-11-05T23:32:26.981Z,2.78
2022-11-05T23:35:12.917Z,2.33
2022-11-05T23:38:16.695Z,3.33
2022-11-05T23:41:21.638Z,1.38
2022-11-05T23:44:27.532Z,2.13
2022-11-05T23:47:31.426Z,1.70
2022-11-05T23:50:16.748Z,3.28
2022-11-05T23:53:01.899Z,3.70
2022-11-05T23:55:47.223Z,2.20
2022-11-05T23:58:33.006Z,3.15
